シンガポール・チャンギ国際空港の過去48時間の天気

シンガポール・チャンギ国際空港 (Singapore / Changi Airport)

現在時刻: 5/26 10:36 +08 (5/26 02:36 UTC) 以下の時間は現地時間です。

過去48時間のMETAR気象情報
時間 風向 風速(m/s) 視程 気温(℃) 湿度(%) 気圧(hPa) 天気現象
26 10:00 不定 1 10km以上 29 74 1010
26 09:30 2 10km以上 29 79 1010
26 09:00 2 10km以上 28 84 1010
26 08:30 不定 1 10km以上 27 84 1010
26 08:00 不定 1 10km以上 26 89 1010
26 07:30 北北西 1 10km以上 25 94 1009
26 07:00 不定 1 10km以上 25 94 1009
26 06:30 不定 1 10km以上 24 100 1008
26 06:00 不定 1 10km以上 24 94 1009
26 05:30 2 10km以上 24 94 1008
26 05:00 不定 1 10km以上 24 94 1008
26 04:30 不定 1 10km以上 24 94 1008
26 04:00 不定 1 10km以上 25 89 1009
26 03:30 不定 1 10km以上 25 89 1009
26 03:00 北北西 2 10km以上 24 94 1010
26 02:30 北北西 2 10km以上 25 89 1010
26 02:00 1 10km以上 25 89 1010
26 01:30 北北西 2 10km以上 25 94 1011
26 01:00 不定 1 10km以上 25 89 1011
26 00:30 不定 1 10km以上 25 89 1011
26 00:00 不定 1 10km以上 26 84 1012
25 23:30 不定 1 10km以上 27 79 1012
25 23:00 西南西 2 10km以上 27 79 1012
25 22:30 西 2 10km以上 27 79 1011
25 22:00 西 2 10km以上 27 79 1011
25 21:30 西 2 10km以上 27 79 1011
25 21:00 西 3 10km以上 27 79 1010
25 20:30 西 2 10km以上 27 84 1010
25 20:00 西 2 10km以上 27 84 1010
25 19:30 西 2 10km以上 26 89 1010
25 19:00 西 3 10km以上 26 89 1010
25 18:30 西 3 10km以上 26 89 1010 弱い雨
25 18:00 西 3 7000m 26 89 1010
25 17:30 西 2 5000m 26 94 1010
25 17:00 不定 2 5000m 26 89 1010 雷雨
25 16:30 不定 2 5000m 25 94 1010 雷雨
25 16:00 西 4 2000m 24 94 1010 強い雷雨
25 15:30 西 4 1200m 27 84 1010 強い雷雨
25 15:00 南西 4 4000m 26 89 1010 雷雨
25 14:30 4 4500m 27 89 1010 雷雨
25 14:00 4 4500m 30 66 1009 弱い雷雨
25 13:30 5 10km以上 31 75 1010 周辺で雷
25 13:00 北東 3 10km以上 33 56 1010 周辺でしゅう雨
25 12:30 不定 2 10km以上 32 75 1011
25 12:00 3 10km以上 33 53 1011
25 11:30 不定 2 10km以上 32 63 1011
25 11:00 不定 2 10km以上 32 71 1011
25 10:30 不定 1 10km以上 31 75 1011
25 10:00 3 10km以上 31 70 1011
25 09:30 4 10km以上 30 79 1011
25 09:00 3 8000m 30 79 1011
25 08:30 3 8000m 29 84 1011
25 08:00 北北西 2 6000m 29 84 1011
25 07:30 北北西 2 8000m 28 89 1010
25 07:00 北北西 2 8000m 27 94 1010
25 06:30 北西 2 10km以上 28 89 1010
25 06:00 北北西 2 10km以上 27 94 1009
25 05:30 不定 1 10km以上 27 94 1009
25 05:00 2 10km以上 27 94 1008
25 04:30 2 10km以上 28 89 1008
25 04:00 北北西 2 10km以上 28 84 1009
WSSS 260200Z VRB02KT 9999 FEW018 SCT160 BKN300 29/24 Q1010 NOSIG
WSSS 260130Z 01003KT 330V060 9999 FEW018 SCT160 BKN280 29/25 Q1010 NOSIG
WSSS 260100Z 35003KT 9999 FEW018 SCT160 BKN270 28/25 Q1010 NOSIG
WSSS 260030Z VRB02KT 9999 FEW018 SCT160 BKN270 27/24 Q1010 NOSIG
WSSS 260000Z VRB02KT 9999 FEW018 BKN160 26/24 Q1010 NOSIG
WSSS 252330Z 34002KT 9999 FEW018 BKN160 25/24 Q1009 NOSIG
WSSS 252300Z VRB01KT 9999 FEW018 BKN160 25/24 Q1009 NOSIG
WSSS 252230Z VRB02KT 9999 FEW018 BKN300 24/24 Q1008 NOSIG
WSSS 252200Z VRB01KT 9999 FEW018 BKN300 24/23 Q1009 NOSIG
WSSS 252130Z 35003KT 9999 FEW018 BKN160 24/23 Q1008 NOSIG
WSSS 252100Z VRB02KT 9999 FEW018 BKN160 24/23 Q1008 NOSIG
WSSS 252030Z VRB01KT 9999 FEW018 BKN160 24/23 Q1008 NOSIG
WSSS 252000Z VRB02KT 9999 FEW018 SCT150 BKN300 25/23 Q1009 NOSIG
WSSS 251930Z VRB01KT 9999 FEW018 BKN150 25/23 Q1009 NOSIG
WSSS 251900Z 34003KT 9999 FEW018 BKN150 24/23 Q1010 NOSIG
WSSS 251830Z 34003KT 9999 FEW018 BKN150 25/23 Q1010 NOSIG
WSSS 251800Z 35002KT 9999 FEW018 BKN160 25/23 Q1010 NOSIG
WSSS 251730Z 34003KT 9999 FEW018 BKN160 BKN300 25/24 Q1011 NOSIG
WSSS 251700Z VRB02KT 9999 FEW018 SCT160 BKN300 25/23 Q1011 NOSIG
WSSS 251630Z VRB01KT 9999 FEW018 SCT160 BKN300 25/23 Q1011 NOSIG
WSSS 251600Z VRB02KT 9999 FEW018 SCT180 BKN300 26/23 Q1012 NOSIG
WSSS 251530Z VRB02KT 9999 FEW018 SCT170 BKN300 27/23 Q1012 NOSIG
WSSS 251500Z 24003KT 170V330 9999 FEW018 SCT170 BKN300 27/23 Q1012 NOSIG
WSSS 251430Z 27003KT 210V320 9999 FEW018 SCT180 BKN300 27/23 Q1011 NOSIG
WSSS 251400Z 27003KT 210V330 9999 FEW018 SCT180 BKN300 27/23 Q1011 NOSIG
WSSS 251330Z 26003KT 190V350 9999 FEW018 SCT170 BKN300 27/23 Q1011 NOSIG
WSSS 251300Z 27005KT 200V350 9999 FEW018 BKN300 27/23 Q1010 NOSIG
WSSS 251230Z 26003KT 180V330 9999 FEW017 SCT280 BKN300 27/24 Q1010 NOSIG
WSSS 251200Z 26004KT 190V320 9999 FEW017 SCT280 BKN300 27/24 Q1010 NOSIG
WSSS 251130Z 27004KT 210V320 9999 FEW015 SCT140 26/24 Q1010 NOSIG
WSSS 251100Z 26005KT 180V320 9999 FEW015 BKN140 26/24 Q1010 NOSIG
WSSS 251030Z 27005KT 220V330 9999 -RA FEW012 BKN150 26/24 Q1010 RERA NOSIG
WSSS 251000Z 26005KT 190V320 7000 RA FEW012 FEW017TCU BKN150 26/24 Q1010 BECMG FM1020 TL1030 NSW
WSSS 250930Z 28003KT 220V350 5000 RA FEW012 FEW016TCU FEW017CB BKN150 26/25 Q1010 RETS BECMG FM0950 TL1000 NSW
WSSS 250900Z VRB04KT 5000 TSRA FEW012 FEW015CB FEW016TCU BKN140 26/24 Q1010 BECMG FM0950 TL1000 NSW
WSSS 250830Z VRB03KT 5000 TSRA FEW010 FEW014CB SCT015TCU BKN140 25/24 Q1010 RERA BECMG FM0850 TL0900 NSW
WSSS 250800Z 28008KT 230V330 2000 +TSRA FEW008 FEW014CB SCT015TCU BKN140 24/23 Q1010 BECMG FM0820 TL0835 4000 TSRA BECMG FM0845 TL0900 6000 SHRA BECMG FM0900 TL0910 NSW
WSSS 250730Z 27008KT 210V350 1200 R20R/P2000N R20L/P2000N +TSRA FEW008 FEW014CB SCT015TCU BKN150 27/24 Q1010 BECMG FM0815 TL0830 4000 TSRA BECMG FM0830 TL0840 6000 NSW
WSSS 250700Z 23008KT 200V270 4000 TSRA FEW012 FEW014CB SCT016TCU 26/24 Q1010 TEMPO FM0730 TL0815 2000 +TSRA BECMG FM0815 TL0830 4000 SHRA BECMG FM0830 TL0840 6000 NSW
WSSS 250630Z 19007KT 160V230 4500 TSRA FEW012 FEW015CB SCT017TCU 27/25 Q1010 BECMG FM0650 TL0700 6000 NSW
WSSS 250600Z 19007KT 160V240 4500 2000E -TSRA FEW010 FEW014CB SCT016TCU 30/23 Q1009 TEMPO TL0645 2000 +TSRA BECMG FM0700 TL0710 6000 NSW
WSSS 250530Z 18010KT 160V220 9999 VCTS FEW013 FEW015CB SCT017TCU 31/26 Q1010 TEMPO FM0600 TL0700 3000 TSRA BECMG FM0700 TL0710 NSW
WSSS 250500Z 04005KT 350V100 9999 VCSH FEW015 SCT017TCU FEW018CB 33/23 Q1010 NOSIG
WSSS 250430Z VRB03KT 9999 SCT017TCU FEW020CB BKN300 32/27 Q1011 NOSIG
WSSS 250400Z 35006KT 320V020 9999 FEW018TCU BKN300 33/22 Q1011 NOSIG
WSSS 250330Z VRB03KT 9999 FEW018TCU BKN300 32/24 Q1011 NOSIG
WSSS 250300Z VRB03KT 9999 FEW018TCU BKN300 32/26 Q1011 NOSIG
WSSS 250230Z VRB02KT 9999 FEW018TCU BKN300 31/26 Q1011 NOSIG
WSSS 250200Z 35005KT 9999 FEW018TCU BKN300 31/25 Q1011 NOSIG
WSSS 250130Z 35007KT 9999 FEW018TCU FEW020CB BKN300 30/26 Q1011 NOSIG
WSSS 250100Z 36006KT 8000 FEW018TCU FEW020CB BKN300 30/26 Q1011 NOSIG
WSSS 250030Z 35005KT 8000 FEW016 FEW018TCU BKN300 29/26 Q1011 NOSIG
WSSS 250000Z 34003KT 6000 FEW016 FEW018TCU SCT030 BKN300 29/26 Q1011 NOSIG
WSSS 242330Z 33003KT 8000 FEW016 FEW018TCU SCT040 BKN300 28/26 Q1010 NOSIG
WSSS 242300Z 34004KT 8000 FEW016 FEW018TCU SCT040 BKN300 27/26 Q1010 NOSIG
WSSS 242230Z 31004KT 9999 FEW016 SCT150 28/26 Q1010 NOSIG
WSSS 242200Z 33004KT 9999 FEW016 BKN300 27/26 Q1009 NOSIG
WSSS 242130Z VRB01KT 9999 FEW016 BKN300 27/26 Q1009 NOSIG
WSSS 242100Z 35004KT 9999 FEW016 BKN300 27/26 Q1008 NOSIG
WSSS 242030Z 36004KT 320V020 9999 FEW016 BKN300 28/26 Q1008 NOSIG
WSSS 242000Z 34003KT 9999 FEW016 BKN300 28/25 Q1009 NOSIG